This is the latest recevied weather packets stored in our database for station/object AG1T-1. If no packets are shown the sender has not sent any weather packets the latest 10 day(s).
| Time | Temp. | Humidity | Pressure | Rain* | Wind** | Luminosity | Snow |
|---|---|---|---|---|---|---|---|
| 1777864804 | 15.56° C | 36% | 1013.5 hPa | 0 mm | - | 0 W/m² | - |
| 1777864203 | 16.67° C | 35% | 1013.4 hPa | 0 mm | - | 0 W/m² | - |
| 1777863603 | 17.22° C | 32% | 1013.3 hPa | 0 mm | - | 0 W/m² | - |
| 1777863003 | 17.78° C | 31% | 1013.3 hPa | 0 mm | - | 0 W/m² | - |
| 1777862403 | 18.33° C | 31% | 1013.3 hPa | 0 mm | - | 0 W/m² | - |
| 1777861803 | 19.44° C | 27% | 1013.3 hPa | 0 mm | - | 5 W/m² | - |
| 1777861203 | 20.56° C | 23% | 1013.2 hPa | 0 mm | - | 9 W/m² | - |
| 1777860603 | 21.67° C | 21% | 1013.3 hPa | 0 mm | - | 12 W/m² | - |
| 1777860003 | 22.78° C | 17% | 1013.3 hPa | 0 mm | - | 19 W/m² | - |
| 1777859403 | 23.33° C | 15% | 1013.3 hPa | 0 mm | - | 25 W/m² | - |
| 1777858803 | 23.89° C | 13% | 1013.5 hPa | 0 mm | - | 44 W/m² | - |
| 1777858203 | 24.44° C | 12% | 1013.6 hPa | 0 mm | - | 93 W/m² | - |
| 1777857603 | 25° C | 12% | 1013.7 hPa | 0 mm | - | 148 W/m² | - |
| 1777857003 | 25° C | 13% | 1013.8 hPa | 0 mm | - | 195 W/m² | - |
| 1777856403 | 24.44° C | 13% | 1013.9 hPa | 0 mm | - | 237 W/m² | - |
| 1777855803 | 23.89° C | 14% | 1014 hPa | 0 mm | - | 271 W/m² | - |
| 1777855203 | 23.89° C | 13% | 1014.1 hPa | 0 mm | - | 311 W/m² | - |
| 1777854603 | 23.89° C | 12% | 1014.2 hPa | 0 mm | - | 339 W/m² | - |
| 1777854003 | 24.44° C | 14% | 1014.4 hPa | 0 mm | - | 373 W/m² | - |
| 1777853403 | 24.44° C | 12% | 1014.3 hPa | 0 mm | - | 406 W/m² | - |
| 1777852803 | 23.89° C | 14% | 1014.4 hPa | 0 mm | - | 438 W/m² | - |
| 1777852203 | 23.89° C | 13% | 1014.4 hPa | 0 mm | - | 469 W/m² | - |
| 1777851603 | 24.44° C | 14% | 1014.5 hPa | 0 mm | - | 512 W/m² | - |
| 1777851003 | 24.44° C | 14% | 1014.6 hPa | 0 mm | - | 536 W/m² | - |
| 1777850403 | 24.44° C | 13% | 1014.6 hPa | 0 mm | - | 566 W/m² | - |
* Rain latest hour (hover to see other rain measurements)
** Current wind speed in m/s (hover to see current wind gust speed)